sensor_id;sensor_type;location;lat;lon;timestamp;P1;durP1;ratioP1;P2;durP2;ratioP2
56653;SDS011;45096;52.302;4.634;2023-08-24T00:00:27;2.72;;;1.83;;
56653;SDS011;45096;52.302;4.634;2023-08-24T00:02:52;2.20;;;1.80;;
56653;SDS011;45096;52.302;4.634;2023-08-24T00:05:19;1.90;;;1.70;;
56653;SDS011;45096;52.302;4.634;2023-08-24T00:07:44;2.10;;;1.90;;
56653;SDS011;45096;52.302;4.634;2023-08-24T00:10:10;1.83;;;1.73;;
56653;SDS011;45096;52.302;4.634;2023-08-24T00:12:35;2.80;;;1.83;;
56653;SDS011;45096;52.302;4.634;2023-08-24T00:15:01;1.60;;;1.50;;
56653;SDS011;45096;52.302;4.634;2023-08-24T00:17:27;3.15;;;1.80;;
56653;SDS011;45096;52.302;4.634;2023-08-24T00:19:52;3.10;;;2.17;;
56653;SDS011;45096;52.302;4.634;2023-08-24T00:22:19;1.92;;;1.83;;
56653;SDS011;45096;52.302;4.634;2023-08-24T00:24:44;2.30;;;1.70;;
56653;SDS011;45096;52.302;4.634;2023-08-24T00:27:10;3.13;;;1.85;;
56653;SDS011;45096;52.302;4.634;2023-08-24T00:29:35;2.00;;;1.90;;
56653;SDS011;45096;52.302;4.634;2023-08-24T00:32:01;2.47;;;1.70;;
56653;SDS011;45096;52.302;4.634;2023-08-24T00:34:26;2.13;;;2.00;;
56653;SDS011;45096;52.302;4.634;2023-08-24T00:36:52;3.03;;;1.65;;
56653;SDS011;45096;52.302;4.634;2023-08-24T00:39:19;2.92;;;1.80;;
56653;SDS011;45096;52.302;4.634;2023-08-24T00:41:44;1.60;;;1.50;;
56653;SDS011;45096;52.302;4.634;2023-08-24T00:44:09;2.10;;;1.58;;
56653;SDS011;45096;52.302;4.634;2023-08-24T00:46:35;1.60;;;1.50;;
56653;SDS011;45096;52.302;4.634;2023-08-24T00:49:00;1.92;;;1.45;;
56653;SDS011;45096;52.302;4.634;2023-08-24T00:51:26;1.67;;;1.58;;
56653;SDS011;45096;52.302;4.634;2023-08-24T00:53:51;1.52;;;1.30;;
56653;SDS011;45096;52.302;4.634;2023-08-24T00:56:18;2.28;;;1.45;;
56653;SDS011;45096;52.302;4.634;2023-08-24T00:58:44;2.22;;;1.70;;
56653;SDS011;45096;52.302;4.634;2023-08-24T01:01:10;1.70;;;1.50;;
56653;SDS011;45096;52.302;4.634;2023-08-24T01:03:36;1.85;;;1.65;;
56653;SDS011;45096;52.302;4.634;2023-08-24T01:06:01;2.83;;;1.58;;
56653;SDS011;45096;52.302;4.634;2023-08-24T01:08:27;1.73;;;1.63;;
56653;SDS011;45096;52.302;4.634;2023-08-24T01:10:54;1.40;;;1.30;;
56653;SDS011;45096;52.302;4.634;2023-08-24T01:13:25;2.17;;;1.55;;
56653;SDS011;45096;52.302;4.634;2023-08-24T01:15:56;1.70;;;1.60;;
56653;SDS011;45096;52.302;4.634;2023-08-24T01:18:26;2.38;;;1.98;;
56653;SDS011;45096;52.302;4.634;2023-08-24T01:20:51;1.55;;;1.42;;
56653;SDS011;45096;52.302;4.634;2023-08-24T01:23:19;1.20;;;1.20;;
56653;SDS011;45096;52.302;4.634;2023-08-24T01:25:53;1.45;;;1.30;;
56653;SDS011;45096;52.302;4.634;2023-08-24T01:28:20;1.63;;;1.52;;
56653;SDS011;45096;52.302;4.634;2023-08-24T01:30:47;1.48;;;1.40;;
56653;SDS011;45096;52.302;4.634;2023-08-24T01:33:12;1.20;;;1.20;;
56653;SDS011;45096;52.302;4.634;2023-08-24T01:35:38;1.60;;;1.50;;
56653;SDS011;45096;52.302;4.634;2023-08-24T01:38:03;1.60;;;1.50;;
56653;SDS011;45096;52.302;4.634;2023-08-24T01:40:31;1.50;;;1.40;;
56653;SDS011;45096;52.302;4.634;2023-08-24T01:43:02;2.60;;;1.60;;
56653;SDS011;45096;52.302;4.634;2023-08-24T01:45:30;1.25;;;1.15;;
56653;SDS011;45096;52.302;4.634;2023-08-24T01:47:57;1.50;;;1.40;;
56653;SDS011;45096;52.302;4.634;2023-08-24T01:50:24;1.38;;;1.27;;
56653;SDS011;45096;52.302;4.634;2023-08-24T01:52:50;1.30;;;1.20;;
56653;SDS011;45096;52.302;4.634;2023-08-24T01:55:17;2.08;;;1.40;;
56653;SDS011;45096;52.302;4.634;2023-08-24T01:57:43;2.20;;;1.52;;
56653;SDS011;45096;52.302;4.634;2023-08-24T02:00:08;1.42;;;1.33;;
56653;SDS011;45096;52.302;4.634;2023-08-24T02:02:36;1.60;;;1.40;;
56653;SDS011;45096;52.302;4.634;2023-08-24T02:05:01;1.73;;;1.10;;
56653;SDS011;45096;52.302;4.634;2023-08-24T02:07:27;1.90;;;1.45;;
56653;SDS011;45096;52.302;4.634;2023-08-24T02:09:52;2.42;;;1.45;;
56653;SDS011;45096;52.302;4.634;2023-08-24T02:12:17;2.05;;;1.27;;
56653;SDS011;45096;52.302;4.634;2023-08-24T02:14:43;2.10;;;1.30;;
56653;SDS011;45096;52.302;4.634;2023-08-24T02:17:08;3.25;;;1.75;;
56653;SDS011;45096;52.302;4.634;2023-08-24T02:19:35;1.42;;;1.33;;
56653;SDS011;45096;52.302;4.634;2023-08-24T02:22:01;3.10;;;1.25;;
56653;SDS011;45096;52.302;4.634;2023-08-24T02:24:26;1.05;;;1.05;;
56653;SDS011;45096;52.302;4.634;2023-08-24T02:26:52;2.47;;;1.40;;
56653;SDS011;45096;52.302;4.634;2023-08-24T02:29:17;1.02;;;1.02;;
56653;SDS011;45096;52.302;4.634;2023-08-24T02:31:43;1.55;;;1.20;;
56653;SDS011;45096;52.302;4.634;2023-08-24T02:34:08;2.90;;;1.30;;
56653;SDS011;45096;52.302;4.634;2023-08-24T02:36:35;1.85;;;1.48;;
56653;SDS011;45096;52.302;4.634;2023-08-24T02:39:00;1.30;;;1.20;;
56653;SDS011;45096;52.302;4.634;2023-08-24T02:41:26;1.25;;;1.23;;
56653;SDS011;45096;52.302;4.634;2023-08-24T02:43:51;2.63;;;1.45;;
56653;SDS011;45096;52.302;4.634;2023-08-24T02:46:17;0.98;;;0.98;;
56653;SDS011;45096;52.302;4.634;2023-08-24T02:48:43;1.17;;;1.13;;
56653;SDS011;45096;52.302;4.634;2023-08-24T02:51:09;1.20;;;1.10;;
56653;SDS011;45096;52.302;4.634;2023-08-24T02:53:36;3.05;;;1.63;;
56653;SDS011;45096;52.302;4.634;2023-08-24T02:56:02;1.25;;;1.25;;
56653;SDS011;45096;52.302;4.634;2023-08-24T02:58:28;1.75;;;1.30;;
56653;SDS011;45096;52.302;4.634;2023-08-24T03:00:53;1.45;;;1.17;;
56653;SDS011;45096;52.302;4.634;2023-08-24T03:03:19;1.35;;;1.20;;
56653;SDS011;45096;52.302;4.634;2023-08-24T03:05:52;1.95;;;1.33;;
56653;SDS011;45096;52.302;4.634;2023-08-24T03:08:18;2.10;;;1.38;;
56653;SDS011;45096;52.302;4.634;2023-08-24T03:10:45;1.30;;;1.20;;
56653;SDS011;45096;52.302;4.634;2023-08-24T03:13:11;1.77;;;1.40;;
56653;SDS011;45096;52.302;4.634;2023-08-24T03:15:36;2.40;;;1.65;;
56653;SDS011;45096;52.302;4.634;2023-08-24T03:18:01;1.80;;;1.25;;
56653;SDS011;45096;52.302;4.634;2023-08-24T03:20:27;1.65;;;1.55;;
56653;SDS011;45096;52.302;4.634;2023-08-24T03:22:53;1.20;;;1.20;;
56653;SDS011;45096;52.302;4.634;2023-08-24T03:25:18;1.42;;;1.35;;
56653;SDS011;45096;52.302;4.634;2023-08-24T03:27:45;1.50;;;1.40;;
56653;SDS011;45096;52.302;4.634;2023-08-24T03:30:11;1.88;;;1.40;;
56653;SDS011;45096;52.302;4.634;2023-08-24T03:32:36;1.20;;;1.13;;
56653;SDS011;45096;52.302;4.634;2023-08-24T03:35:02;2.28;;;1.60;;
56653;SDS011;45096;52.302;4.634;2023-08-24T03:37:28;2.40;;;1.42;;
56653;SDS011;45096;52.302;4.634;2023-08-24T03:39:53;1.65;;;1.55;;
56653;SDS011;45096;52.302;4.634;2023-08-24T03:42:19;2.00;;;1.48;;
56653;SDS011;45096;52.302;4.634;2023-08-24T03:44:45;1.70;;;1.60;;
56653;SDS011;45096;52.302;4.634;2023-08-24T03:47:11;1.52;;;1.40;;
56653;SDS011;45096;52.302;4.634;2023-08-24T03:49:36;1.63;;;1.58;;
56653;SDS011;45096;52.302;4.634;2023-08-24T03:52:02;1.40;;;1.30;;
56653;SDS011;45096;52.302;4.634;2023-08-24T03:54:27;1.98;;;1.60;;
56653;SDS011;45096;52.302;4.634;2023-08-24T03:56:53;1.60;;;1.50;;
56653;SDS011;45096;52.302;4.634;2023-08-24T03:59:18;1.67;;;1.58;;
56653;SDS011;45096;52.302;4.634;2023-08-24T04:01:45;2.50;;;1.67;;
56653;SDS011;45096;52.302;4.634;2023-08-24T04:04:10;1.60;;;1.38;;
56653;SDS011;45096;52.302;4.634;2023-08-24T04:06:36;2.70;;;1.92;;
56653;SDS011;45096;52.302;4.634;2023-08-24T04:09:01;1.88;;;1.55;;
56653;SDS011;45096;52.302;4.634;2023-08-24T04:11:26;1.40;;;1.30;;
56653;SDS011;45096;52.302;4.634;2023-08-24T04:13:52;1.38;;;1.38;;
56653;SDS011;45096;52.302;4.634;2023-08-24T04:16:17;1.35;;;1.25;;
56653;SDS011;45096;52.302;4.634;2023-08-24T04:18:44;1.98;;;1.30;;
56653;SDS011;45096;52.302;4.634;2023-08-24T04:21:10;1.80;;;1.38;;
56653;SDS011;45096;52.302;4.634;2023-08-24T04:23:35;1.40;;;1.20;;
56653;SDS011;45096;52.302;4.634;2023-08-24T04:26:00;2.00;;;1.50;;
56653;SDS011;45096;52.302;4.634;2023-08-24T04:28:26;1.50;;;1.40;;
56653;SDS011;45096;52.302;4.634;2023-08-24T04:30:51;2.15;;;1.52;;
56653;SDS011;45096;52.302;4.634;2023-08-24T04:33:17;1.75;;;1.60;;
56653;SDS011;45096;52.302;4.634;2023-08-24T04:35:44;1.10;;;1.10;;
56653;SDS011;45096;52.302;4.634;2023-08-24T04:38:10;1.60;;;1.50;;
56653;SDS011;45096;52.302;4.634;2023-08-24T04:40:46;1.45;;;1.38;;
56653;SDS011;45096;52.302;4.634;2023-08-24T04:43:15;2.58;;;2.22;;
56653;SDS011;45096;52.302;4.634;2023-08-24T04:45:40;1.60;;;1.50;;
56653;SDS011;45096;52.302;4.634;2023-08-24T04:48:06;2.05;;;1.33;;
56653;SDS011;45096;52.302;4.634;2023-08-24T04:50:31;1.92;;;1.52;;
56653;SDS011;45096;52.302;4.634;2023-08-24T04:52:58;1.48;;;1.48;;
56653;SDS011;45096;52.302;4.634;2023-08-24T04:55:23;1.85;;;1.75;;
56653;SDS011;45096;52.302;4.634;2023-08-24T04:57:49;1.95;;;1.85;;
56653;SDS011;45096;52.302;4.634;2023-08-24T05:00:14;1.30;;;1.30;;
56653;SDS011;45096;52.302;4.634;2023-08-24T05:02:40;2.00;;;1.90;;
56653;SDS011;45096;52.302;4.634;2023-08-24T05:05:06;1.52;;;1.35;;
56653;SDS011;45096;52.302;4.634;2023-08-24T05:07:33;1.13;;;1.02;;
56653;SDS011;45096;52.302;4.634;2023-08-24T05:10:00;1.70;;;1.60;;
56653;SDS011;45096;52.302;4.634;2023-08-24T05:12:25;1.65;;;1.55;;
56653;SDS011;45096;52.302;4.634;2023-08-24T05:14:50;1.85;;;1.75;;
56653;SDS011;45096;52.302;4.634;2023-08-24T05:17:16;4.40;;;1.73;;
56653;SDS011;45096;52.302;4.634;2023-08-24T05:19:41;1.80;;;1.70;;
56653;SDS011;45096;52.302;4.634;2023-08-24T05:22:07;2.03;;;1.80;;
56653;SDS011;45096;52.302;4.634;2023-08-24T05:24:32;2.00;;;1.85;;
56653;SDS011;45096;52.302;4.634;2023-08-24T05:26:59;1.80;;;1.70;;
56653;SDS011;45096;52.302;4.634;2023-08-24T05:29:24;1.58;;;1.42;;
56653;SDS011;45096;52.302;4.634;2023-08-24T05:31:50;2.00;;;1.90;;
56653;SDS011;45096;52.302;4.634;2023-08-24T05:34:15;2.17;;;2.08;;
56653;SDS011;45096;52.302;4.634;2023-08-24T05:36:40;1.80;;;1.60;;
56653;SDS011;45096;52.302;4.634;2023-08-24T05:39:06;1.92;;;1.83;;
56653;SDS011;45096;52.302;4.634;2023-08-24T05:41:31;2.05;;;1.95;;
56653;SDS011;45096;52.302;4.634;2023-08-24T05:43:58;2.13;;;1.88;;
56653;SDS011;45096;52.302;4.634;2023-08-24T05:46:23;2.40;;;2.30;;
56653;SDS011;45096;52.302;4.634;2023-08-24T05:48:49;2.08;;;1.90;;
56653;SDS011;45096;52.302;4.634;2023-08-24T05:51:14;1.42;;;1.42;;
56653;SDS011;45096;52.302;4.634;2023-08-24T05:53:40;2.92;;;2.30;;
56653;SDS011;45096;52.302;4.634;2023-08-24T05:56:05;2.00;;;1.85;;
56653;SDS011;45096;52.302;4.634;2023-08-24T05:58:30;1.83;;;1.73;;
56653;SDS011;45096;52.302;4.634;2023-08-24T06:00:58;2.35;;;1.95;;
56653;SDS011;45096;52.302;4.634;2023-08-24T06:03:24;2.17;;;2.00;;
56653;SDS011;45096;52.302;4.634;2023-08-24T06:05:49;2.65;;;2.15;;
56653;SDS011;45096;52.302;4.634;2023-08-24T06:08:15;1.95;;;1.85;;
56653;SDS011;45096;52.302;4.634;2023-08-24T06:10:41;1.88;;;1.77;;
56653;SDS011;45096;52.302;4.634;2023-08-24T06:13:06;1.92;;;1.83;;
56653;SDS011;45096;52.302;4.634;2023-08-24T06:15:31;4.10;;;2.40;;
56653;SDS011;45096;52.302;4.634;2023-08-24T06:17:58;2.60;;;2.40;;
56653;SDS011;45096;52.302;4.634;2023-08-24T06:20:24;2.58;;;2.38;;
56653;SDS011;45096;52.302;4.634;2023-08-24T06:22:49;1.92;;;1.83;;
56653;SDS011;45096;52.302;4.634;2023-08-24T06:25:15;4.18;;;2.40;;
56653;SDS011;45096;52.302;4.634;2023-08-24T06:27:40;2.70;;;2.50;;
56653;SDS011;45096;52.302;4.634;2023-08-24T06:30:06;3.55;;;2.78;;
56653;SDS011;45096;52.302;4.634;2023-08-24T06:32:32;2.55;;;2.35;;
56653;SDS011;45096;52.302;4.634;2023-08-24T06:34:58;3.92;;;2.70;;
56653;SDS011;45096;52.302;4.634;2023-08-24T06:37:24;3.33;;;2.10;;
56653;SDS011;45096;52.302;4.634;2023-08-24T06:39:49;2.25;;;2.10;;
56653;SDS011;45096;52.302;4.634;2023-08-24T06:42:15;2.83;;;2.33;;
56653;SDS011;45096;52.302;4.634;2023-08-24T06:44:40;2.33;;;2.22;;
56653;SDS011;45096;52.302;4.634;2023-08-24T06:47:06;2.40;;;2.28;;
56653;SDS011;45096;52.302;4.634;2023-08-24T06:49:31;2.47;;;2.28;;
56653;SDS011;45096;52.302;4.634;2023-08-24T06:51:58;3.92;;;2.30;;
56653;SDS011;45096;52.302;4.634;2023-08-24T06:54:23;2.80;;;2.38;;
56653;SDS011;45096;52.302;4.634;2023-08-24T06:56:48;2.35;;;2.25;;
56653;SDS011;45096;52.302;4.634;2023-08-24T06:59:14;2.17;;;1.92;;
56653;SDS011;45096;52.302;4.634;2023-08-24T07:01:39;2.35;;;2.15;;
56653;SDS011;45096;52.302;4.634;2023-08-24T07:04:05;4.65;;;2.38;;
56653;SDS011;45096;52.302;4.634;2023-08-24T07:06:30;2.28;;;2.10;;
56653;SDS011;45096;52.302;4.634;2023-08-24T07:08:59;1.90;;;1.80;;
56653;SDS011;45096;52.302;4.634;2023-08-24T07:11:25;2.53;;;2.33;;
56653;SDS011;45096;52.302;4.634;2023-08-24T07:13:50;2.42;;;2.22;;
56653;SDS011;45096;52.302;4.634;2023-08-24T07:16:15;1.98;;;1.88;;
56653;SDS011;45096;52.302;4.634;2023-08-24T07:18:41;2.45;;;2.13;;
56653;SDS011;45096;52.302;4.634;2023-08-24T07:21:06;2.45;;;2.25;;
56653;SDS011;45096;52.302;4.634;2023-08-24T07:23:32;2.83;;;2.60;;
56653;SDS011;45096;52.302;4.634;2023-08-24T07:25:58;4.28;;;2.80;;
56653;SDS011;45096;52.302;4.634;2023-08-24T07:28:24;2.40;;;2.20;;
56653;SDS011;45096;52.302;4.634;2023-08-24T07:30:49;3.45;;;3.15;;
56653;SDS011;45096;52.302;4.634;2023-08-24T07:33:15;2.70;;;2.50;;
56653;SDS011;45096;52.302;4.634;2023-08-24T07:35:40;2.40;;;2.10;;
56653;SDS011;45096;52.302;4.634;2023-08-24T07:38:05;2.85;;;2.00;;
56653;SDS011;45096;52.302;4.634;2023-08-24T07:40:31;3.60;;;2.75;;
56653;SDS011;45096;52.302;4.634;2023-08-24T07:42:58;3.22;;;2.80;;
56653;SDS011;45096;52.302;4.634;2023-08-24T07:45:23;2.88;;;2.50;;
56653;SDS011;45096;52.302;4.634;2023-08-24T07:47:49;3.80;;;2.70;;
56653;SDS011;45096;52.302;4.634;2023-08-24T07:50:14;3.65;;;3.38;;
56653;SDS011;45096;52.302;4.634;2023-08-24T07:52:40;4.28;;;3.58;;
56653;SDS011;45096;52.302;4.634;2023-08-24T07:55:06;3.92;;;3.50;;
56653;SDS011;45096;52.302;4.634;2023-08-24T07:57:32;3.97;;;3.03;;
56653;SDS011;45096;52.302;4.634;2023-08-24T07:59:59;5.45;;;4.00;;
56653;SDS011;45096;52.302;4.634;2023-08-24T08:02:24;7.82;;;4.88;;
56653;SDS011;45096;52.302;4.634;2023-08-24T08:04:50;4.20;;;3.80;;
56653;SDS011;45096;52.302;4.634;2023-08-24T08:07:15;4.65;;;3.58;;
56653;SDS011;45096;52.302;4.634;2023-08-24T08:09:41;3.97;;;3.58;;
56653;SDS011;45096;52.302;4.634;2023-08-24T08:12:07;5.22;;;4.82;;
56653;SDS011;45096;52.302;4.634;2023-08-24T08:14:33;3.72;;;3.40;;
56653;SDS011;45096;52.302;4.634;2023-08-24T08:16:59;3.45;;;3.15;;
56653;SDS011;45096;52.302;4.634;2023-08-24T08:19:25;4.25;;;3.95;;
56653;SDS011;45096;52.302;4.634;2023-08-24T08:21:50;4.07;;;3.55;;
56653;SDS011;45096;52.302;4.634;2023-08-24T08:24:16;4.82;;;3.75;;
56653;SDS011;45096;52.302;4.634;2023-08-24T08:26:41;4.15;;;3.80;;
56653;SDS011;45096;52.302;4.634;2023-08-24T08:29:07;4.50;;;4.07;;
56653;SDS011;45096;52.302;4.634;2023-08-24T08:31:32;5.03;;;4.28;;
56653;SDS011;45096;52.302;4.634;2023-08-24T08:33:59;4.97;;;3.55;;
56653;SDS011;45096;52.302;4.634;2023-08-24T08:36:24;5.32;;;4.60;;
56653;SDS011;45096;52.302;4.634;2023-08-24T08:38:50;5.38;;;4.28;;
56653;SDS011;45096;52.302;4.634;2023-08-24T08:41:15;4.28;;;3.80;;
56653;SDS011;45096;52.302;4.634;2023-08-24T08:43:42;5.65;;;4.03;;
56653;SDS011;45096;52.302;4.634;2023-08-24T08:46:07;5.63;;;4.43;;
56653;SDS011;45096;52.302;4.634;2023-08-24T08:48:33;4.93;;;4.20;;
56653;SDS011;45096;52.302;4.634;2023-08-24T08:51:00;4.38;;;3.75;;
56653;SDS011;45096;52.302;4.634;2023-08-24T08:53:26;3.85;;;3.42;;
56653;SDS011;45096;52.302;4.634;2023-08-24T08:55:51;4.65;;;4.25;;
56653;SDS011;45096;52.302;4.634;2023-08-24T08:58:17;5.75;;;4.70;;
56653;SDS011;45096;52.302;4.634;2023-08-24T09:00:43;3.63;;;3.30;;
56653;SDS011;45096;52.302;4.634;2023-08-24T09:03:09;4.85;;;3.88;;
56653;SDS011;45096;52.302;4.634;2023-08-24T09:05:35;4.93;;;4.32;;
56653;SDS011;45096;52.302;4.634;2023-08-24T09:08:03;4.32;;;3.65;;
56653;SDS011;45096;52.302;4.634;2023-08-24T09:10:30;3.75;;;3.35;;
56653;SDS011;45096;52.302;4.634;2023-08-24T09:12:55;3.78;;;3.50;;
56653;SDS011;45096;52.302;4.634;2023-08-24T09:15:23;3.80;;;3.50;;
56653;SDS011;45096;52.302;4.634;2023-08-24T09:17:49;4.20;;;3.80;;
56653;SDS011;45096;52.302;4.634;2023-08-24T09:20:15;3.35;;;3.10;;
56653;SDS011;45096;52.302;4.634;2023-08-24T09:22:40;4.93;;;4.53;;
56653;SDS011;45096;52.302;4.634;2023-08-24T09:25:08;4.53;;;4.13;;
56653;SDS011;45096;52.302;4.634;2023-08-24T09:27:34;4.93;;;4.43;;
56653;SDS011;45096;52.302;4.634;2023-08-24T09:29:59;4.70;;;4.10;;
56653;SDS011;45096;52.302;4.634;2023-08-24T09:32:27;4.22;;;3.78;;
56653;SDS011;45096;52.302;4.634;2023-08-24T09:34:53;3.72;;;3.30;;
56653;SDS011;45096;52.302;4.634;2023-08-24T09:37:19;3.92;;;3.63;;
56653;SDS011;45096;52.302;4.634;2023-08-24T09:39:44;4.55;;;4.15;;
56653;SDS011;45096;52.302;4.634;2023-08-24T09:42:11;4.13;;;3.72;;
56653;SDS011;45096;52.302;4.634;2023-08-24T09:44:37;4.20;;;3.78;;
56653;SDS011;45096;52.302;4.634;2023-08-24T09:47:08;5.47;;;4.30;;
56653;SDS011;45096;52.302;4.634;2023-08-24T09:49:34;4.30;;;3.67;;
56653;SDS011;45096;52.302;4.634;2023-08-24T09:51:59;3.65;;;3.35;;
56653;SDS011;45096;52.302;4.634;2023-08-24T09:54:26;3.47;;;3.28;;
56653;SDS011;45096;52.302;4.634;2023-08-24T09:56:52;4.05;;;3.75;;
56653;SDS011;45096;52.302;4.634;2023-08-24T09:59:20;3.17;;;2.97;;
56653;SDS011;45096;52.302;4.634;2023-08-24T10:01:47;2.90;;;2.72;;
56653;SDS011;45096;52.302;4.634;2023-08-24T10:04:14;3.10;;;2.90;;
56653;SDS011;45096;52.302;4.634;2023-08-24T10:06:40;3.88;;;3.47;;
56653;SDS011;45096;52.302;4.634;2023-08-24T10:09:08;3.78;;;2.70;;
56653;SDS011;45096;52.302;4.634;2023-08-24T10:11:39;3.20;;;3.00;;
56653;SDS011;45096;52.302;4.634;2023-08-24T10:14:08;2.50;;;2.38;;
56653;SDS011;45096;52.302;4.634;2023-08-24T10:16:38;3.22;;;2.90;;
56653;SDS011;45096;52.302;4.634;2023-08-24T10:19:04;2.70;;;2.60;;
56653;SDS011;45096;52.302;4.634;2023-08-24T10:21:30;3.22;;;2.92;;
56653;SDS011;45096;52.302;4.634;2023-08-24T10:23:56;2.40;;;2.30;;
56653;SDS011;45096;52.302;4.634;2023-08-24T10:26:22;2.55;;;2.35;;
56653;SDS011;45096;52.302;4.634;2023-08-24T10:28:47;2.92;;;2.58;;
56653;SDS011;45096;52.302;4.634;2023-08-24T10:31:15;4.82;;;3.15;;
56653;SDS011;45096;52.302;4.634;2023-08-24T10:33:42;6.15;;;4.93;;
56653;SDS011;45096;52.302;4.634;2023-08-24T10:36:09;10.75;;;6.03;;
56653;SDS011;45096;52.302;4.634;2023-08-24T10:38:34;6.50;;;5.25;;
56653;SDS011;45096;52.302;4.634;2023-08-24T10:41:05;7.72;;;4.55;;
56653;SDS011;45096;52.302;4.634;2023-08-24T10:43:33;6.88;;;4.28;;
56653;SDS011;45096;52.302;4.634;2023-08-24T10:46:00;4.45;;;4.05;;
56653;SDS011;45096;52.302;4.634;2023-08-24T10:48:26;9.68;;;4.55;;
56653;SDS011;45096;52.302;4.634;2023-08-24T10:53:51;5.25;;;4.15;;
56653;SDS011;45096;52.302;4.634;2023-08-24T10:56:18;5.38;;;3.88;;
56653;SDS011;45096;52.302;4.634;2023-08-24T10:58:44;4.18;;;3.88;;
56653;SDS011;45096;52.302;4.634;2023-08-24T11:01:14;4.47;;;3.65;;
56653;SDS011;45096;52.302;4.634;2023-08-24T11:03:40;3.20;;;3.00;;
56653;SDS011;45096;52.302;4.634;2023-08-24T11:06:17;4.13;;;3.05;;
56653;SDS011;45096;52.302;4.634;2023-08-24T11:08:47;3.60;;;3.40;;
56653;SDS011;45096;52.302;4.634;2023-08-24T11:11:19;3.55;;;3.20;;
56653;SDS011;45096;52.302;4.634;2023-08-24T11:16:38;3.33;;;3.10;;
56653;SDS011;45096;52.302;4.634;2023-08-24T11:19:04;4.88;;;3.78;;
56653;SDS011;45096;52.302;4.634;2023-08-24T11:21:30;4.75;;;3.70;;
56653;SDS011;45096;52.302;4.634;2023-08-24T11:23:57;4.50;;;3.65;;
56653;SDS011;45096;52.302;4.634;2023-08-24T11:26:24;4.13;;;3.38;;
56653;SDS011;45096;52.302;4.634;2023-08-24T11:28:52;3.63;;;3.33;;
56653;SDS011;45096;52.302;4.634;2023-08-24T11:31:18;5.60;;;3.75;;
56653;SDS011;45096;52.302;4.634;2023-08-24T11:33:43;3.67;;;3.25;;
56653;SDS011;45096;52.302;4.634;2023-08-24T11:36:09;4.05;;;3.60;;
56653;SDS011;45096;52.302;4.634;2023-08-24T11:38:35;3.33;;;3.03;;
56653;SDS011;45096;52.302;4.634;2023-08-24T11:41:02;5.35;;;3.83;;
56653;SDS011;45096;52.302;4.634;2023-08-24T11:43:35;5.88;;;3.97;;
56653;SDS011;45096;52.302;4.634;2023-08-24T11:46:01;6.30;;;4.25;;
56653;SDS011;45096;52.302;4.634;2023-08-24T11:48:26;4.10;;;3.80;;
56653;SDS011;45096;52.302;4.634;2023-08-24T11:50:51;4.75;;;4.28;;
56653;SDS011;45096;52.302;4.634;2023-08-24T11:53:17;4.15;;;3.85;;
56653;SDS011;45096;52.302;4.634;2023-08-24T11:55:42;4.82;;;4.28;;
56653;SDS011;45096;52.302;4.634;2023-08-24T11:58:14;6.10;;;4.40;;
56653;SDS011;45096;52.302;4.634;2023-08-24T12:00:40;3.97;;;3.67;;
56653;SDS011;45096;52.302;4.634;2023-08-24T12:03:06;5.55;;;4.18;;
56653;SDS011;45096;52.302;4.634;2023-08-24T12:05:31;5.47;;;4.97;;
56653;SDS011;45096;52.302;4.634;2023-08-24T12:07:56;5.70;;;5.10;;
56653;SDS011;45096;52.302;4.634;2023-08-24T12:10:22;6.03;;;5.43;;
56653;SDS011;45096;52.302;4.634;2023-08-24T12:12:47;7.50;;;5.57;;
56653;SDS011;45096;52.302;4.634;2023-08-24T12:15:18;5.82;;;5.22;;
56653;SDS011;45096;52.302;4.634;2023-08-24T12:17:44;7.53;;;6.03;;
56653;SDS011;45096;52.302;4.634;2023-08-24T12:20:16;6.28;;;5.70;;
56653;SDS011;45096;52.302;4.634;2023-08-24T12:22:42;8.82;;;6.72;;
56653;SDS011;45096;52.302;4.634;2023-08-24T12:25:08;6.03;;;5.43;;
56653;SDS011;45096;52.302;4.634;2023-08-24T12:27:33;8.98;;;6.65;;
56653;SDS011;45096;52.302;4.634;2023-08-24T12:29:59;7.22;;;6.47;;
56653;SDS011;45096;52.302;4.634;2023-08-24T12:32:31;7.68;;;6.95;;
56653;SDS011;45096;52.302;4.634;2023-08-24T12:35:07;7.40;;;6.70;;
56653;SDS011;45096;52.302;4.634;2023-08-24T12:37:32;8.25;;;6.53;;
56653;SDS011;45096;52.302;4.634;2023-08-24T12:39:58;7.68;;;6.97;;
56653;SDS011;45096;52.302;4.634;2023-08-24T12:42:23;8.70;;;7.70;;
56653;SDS011;45096;52.302;4.634;2023-08-24T12:44:49;7.78;;;7.05;;
56653;SDS011;45096;52.302;4.634;2023-08-24T12:47:14;7.75;;;7.07;;
56653;SDS011;45096;52.302;4.634;2023-08-24T12:49:41;6.53;;;6.00;;
56653;SDS011;45096;52.302;4.634;2023-08-24T12:52:06;7.10;;;5.80;;
56653;SDS011;45096;52.302;4.634;2023-08-24T12:54:32;6.20;;;5.60;;
56653;SDS011;45096;52.302;4.634;2023-08-24T12:56:57;6.85;;;5.95;;
56653;SDS011;45096;52.302;4.634;2023-08-24T12:59:22;6.78;;;5.50;;
56653;SDS011;45096;52.302;4.634;2023-08-24T13:01:48;7.05;;;5.57;;
56653;SDS011;45096;52.302;4.634;2023-08-24T13:04:13;6.30;;;5.70;;
56653;SDS011;45096;52.302;4.634;2023-08-24T13:06:40;5.35;;;4.90;;
56653;SDS011;45096;52.302;4.634;2023-08-24T13:09:06;5.28;;;4.78;;
56653;SDS011;45096;52.302;4.634;2023-08-24T13:11:31;8.63;;;4.85;;
56653;SDS011;45096;52.302;4.634;2023-08-24T13:13:57;4.95;;;4.60;;
56653;SDS011;45096;52.302;4.634;2023-08-24T13:16:22;5.18;;;4.78;;
56653;SDS011;45096;52.302;4.634;2023-08-24T13:18:48;4.50;;;4.18;;
56653;SDS011;45096;52.302;4.634;2023-08-24T13:21:13;6.03;;;5.05;;
56653;SDS011;45096;52.302;4.634;2023-08-24T13:23:40;6.40;;;4.28;;
56653;SDS011;45096;52.302;4.634;2023-08-24T13:26:05;4.68;;;4.05;;
56653;SDS011;45096;52.302;4.634;2023-08-24T13:28:31;4.78;;;4.38;;
56653;SDS011;45096;52.302;4.634;2023-08-24T13:30:56;4.63;;;4.25;;
56653;SDS011;45096;52.302;4.634;2023-08-24T13:33:22;5.40;;;4.90;;
56653;SDS011;45096;52.302;4.634;2023-08-24T13:35:47;5.78;;;5.38;;
56653;SDS011;45096;52.302;4.634;2023-08-24T13:38:12;5.40;;;4.90;;
56653;SDS011;45096;52.302;4.634;2023-08-24T13:40:39;5.78;;;5.22;;
56653;SDS011;45096;52.302;4.634;2023-08-24T13:43:04;5.25;;;4.75;;
56653;SDS011;45096;52.302;4.634;2023-08-24T13:45:30;5.43;;;4.40;;
56653;SDS011;45096;52.302;4.634;2023-08-24T13:47:55;6.57;;;5.25;;
56653;SDS011;45096;52.302;4.634;2023-08-24T13:50:21;5.18;;;4.78;;
56653;SDS011;45096;52.302;4.634;2023-08-24T13:52:46;6.53;;;5.57;;
56653;SDS011;45096;52.302;4.634;2023-08-24T13:55:12;5.25;;;4.85;;
56653;SDS011;45096;52.302;4.634;2023-08-24T13:57:38;5.80;;;4.53;;
56653;SDS011;45096;52.302;4.634;2023-08-24T14:00:04;6.63;;;5.78;;
56653;SDS011;45096;52.302;4.634;2023-08-24T14:02:31;5.75;;;5.05;;
56653;SDS011;45096;52.302;4.634;2023-08-24T14:04:56;8.13;;;5.70;;
56653;SDS011;45096;52.302;4.634;2023-08-24T14:07:21;8.27;;;6.45;;
56653;SDS011;45096;52.302;4.634;2023-08-24T14:09:47;6.55;;;5.80;;
56653;SDS011;45096;52.302;4.634;2023-08-24T14:12:12;7.82;;;5.90;;
56653;SDS011;45096;52.302;4.634;2023-08-24T14:14:39;7.25;;;6.20;;
56653;SDS011;45096;52.302;4.634;2023-08-24T14:17:04;6.15;;;5.53;;
56653;SDS011;45096;52.302;4.634;2023-08-24T14:19:30;7.75;;;6.40;;
56653;SDS011;45096;52.302;4.634;2023-08-24T14:21:55;9.52;;;5.78;;
56653;SDS011;45096;52.302;4.634;2023-08-24T14:24:21;5.50;;;5.00;;
56653;SDS011;45096;52.302;4.634;2023-08-24T14:26:46;5.93;;;5.32;;
56653;SDS011;45096;52.302;4.634;2023-08-24T14:29:12;8.15;;;6.15;;
56653;SDS011;45096;52.302;4.634;2023-08-24T14:31:39;7.15;;;5.53;;
56653;SDS011;45096;52.302;4.634;2023-08-24T14:34:04;8.10;;;6.35;;
56653;SDS011;45096;52.302;4.634;2023-08-24T14:36:29;8.98;;;7.60;;
56653;SDS011;45096;52.302;4.634;2023-08-24T14:38:55;6.25;;;5.75;;
56653;SDS011;45096;52.302;4.634;2023-08-24T14:41:20;5.80;;;5.30;;
56653;SDS011;45096;52.302;4.634;2023-08-24T14:43:46;8.70;;;7.80;;
56653;SDS011;45096;52.302;4.634;2023-08-24T14:46:12;6.43;;;5.78;;